createdAt,value
2022-12-01T00:01:07.933Z,97744.16
2022-12-01T00:03:35.183Z,97743.59
2022-12-01T00:06:12.466Z,97744.16
2022-12-01T00:08:39.230Z,97743.06
2022-12-01T00:11:09.264Z,97738.66
2022-12-01T00:13:38.650Z,97733.06
2022-12-01T00:16:15.907Z,97733.19
2022-12-01T00:18:43.065Z,97732.97
2022-12-01T00:21:21.285Z,97731.34
2022-12-01T00:23:50.049Z,97726.03
2022-12-01T00:26:18.384Z,97727.59
2022-12-01T00:28:48.984Z,97718.03
2022-12-01T00:31:15.661Z,97717.34
2022-12-01T00:33:42.226Z,97721.16
2022-12-01T00:36:09.147Z,97725.50
2022-12-01T00:38:35.704Z,97722.56
2022-12-01T00:41:03.045Z,97726.41
2022-12-01T00:43:29.743Z,97723.03
2022-12-01T00:45:56.711Z,97720.34
2022-12-01T00:48:23.849Z,97718.66
2022-12-01T00:50:55.130Z,97723.69
2022-12-01T00:53:22.244Z,97729.03
2022-12-01T00:55:48.972Z,97728.03
2022-12-01T00:58:15.560Z,97721.53
2022-12-01T01:00:43.040Z,97721.41
2022-12-01T01:03:10.447Z,97715.44
2022-12-01T01:05:38.926Z,97723.31
2022-12-01T01:08:10.480Z,97720.69
2022-12-01T01:10:44.980Z,97721.16
2022-12-01T01:13:13.077Z,97716.69
2022-12-01T01:15:40.159Z,97714.44
2022-12-01T01:18:07.210Z,97717.81
2022-12-01T01:20:33.874Z,97713.78
2022-12-01T01:23:00.476Z,97712.13
2022-12-01T01:25:27.044Z,97717.56
2022-12-01T01:27:53.597Z,97715.03
2022-12-01T01:30:23.046Z,97717.38
2022-12-01T01:32:49.588Z,97713.31
2022-12-01T01:35:18.429Z,97705.00
2022-12-01T01:37:45.008Z,97703.00
2022-12-01T01:40:11.918Z,97704.03
2022-12-01T01:42:38.476Z,97703.06
2022-12-01T01:45:17.222Z,97702.34
2022-12-01T01:47:44.400Z,97713.34
2022-12-01T01:50:14.824Z,97713.97
2022-12-01T01:53:01.664Z,97710.34
2022-12-01T01:55:31.659Z,97710.53
2022-12-01T01:57:58.486Z,97708.81
2022-12-01T02:00:25.132Z,97714.53
2022-12-01T02:02:53.297Z,97708.81
2022-12-01T02:05:27.667Z,97715.03
2022-12-01T02:07:56.782Z,97708.47
2022-12-01T02:10:45.278Z,97706.81
2022-12-01T02:13:29.260Z,97700.63
2022-12-01T02:16:14.443Z,97702.66
2022-12-01T02:18:56.618Z,97697.38
2022-12-01T02:21:32.144Z,97700.00
2022-12-01T02:24:26.520Z,97704.09
2022-12-01T02:27:02.603Z,97693.66
2022-12-01T02:29:38.368Z,97693.22
2022-12-01T02:32:23.651Z,97693.34
2022-12-01T02:35:09.771Z,97686.41
2022-12-01T02:37:54.939Z,97690.34
2022-12-01T02:40:30.064Z,97685.19
2022-12-01T02:43:03.256Z,97691.44
2022-12-01T02:45:56.337Z,97687.41
2022-12-01T02:48:29.632Z,97682.22
2022-12-01T02:51:01.234Z,97685.56
2022-12-01T02:53:27.943Z,97684.59
2022-12-01T02:55:57.969Z,97687.72
2022-12-01T02:58:24.862Z,97687.78
2022-12-01T03:01:28.501Z,97692.88
2022-12-01T03:04:22.466Z,97693.34
2022-12-01T03:07:12.878Z,97687.66
2022-12-01T03:10:16.182Z,97679.03
2022-12-01T03:13:18.656Z,97681.06
2022-12-01T03:16:07.056Z,97684.00
2022-12-01T03:18:51.754Z,97686.75
2022-12-01T03:21:33.638Z,97672.84
2022-12-01T03:24:06.320Z,97678.47
2022-12-01T03:26:35.333Z,97680.94
2022-12-01T03:29:07.656Z,97677.16
2022-12-01T03:31:40.723Z,97675.94
2022-12-01T03:34:15.449Z,97679.13
2022-12-01T03:36:50.093Z,97678.34
2022-12-01T03:39:23.304Z,97687.00
2022-12-01T03:42:45.622Z,97678.91
2022-12-01T03:45:17.963Z,97684.25
2022-12-01T03:47:45.004Z,97674.88
2022-12-01T03:50:15.447Z,97681.72
2022-12-01T03:53:14.419Z,97683.69
2022-12-01T03:55:44.301Z,97682.06
2022-12-01T03:58:22.761Z,97678.59
2022-12-01T04:00:57.653Z,97682.81
2022-12-01T04:03:26.352Z,97679.09
2022-12-01T04:05:58.020Z,97683.03
2022-12-01T04:08:25.272Z,97684.25
2022-12-01T04:10:52.049Z,97692.09
2022-12-01T04:13:27.061Z,97688.16
2022-12-01T04:15:54.767Z,97685.56
2022-12-01T04:18:22.054Z,97688.84
2022-12-01T04:20:49.930Z,97684.47
2022-12-01T04:23:35.462Z,97687.31
2022-12-01T04:26:05.133Z,97691.19
2022-12-01T04:28:34.061Z,97690.44
2022-12-01T04:31:00.645Z,97683.03
2022-12-01T04:33:32.039Z,97674.84
2022-12-01T04:35:59.893Z,97683.69
2022-12-01T04:38:30.652Z,97681.72
2022-12-01T04:40:57.975Z,97675.44
2022-12-01T04:43:24.666Z,97678.38
2022-12-01T04:45:51.220Z,97679.81
2022-12-01T04:48:17.744Z,97683.28
2022-12-01T04:50:44.300Z,97678.84
2022-12-01T04:53:10.817Z,97673.78
2022-12-01T04:55:38.999Z,97679.91
2022-12-01T04:58:06.076Z,97679.25
2022-12-01T05:00:33.544Z,97679.44
2022-12-01T05:03:01.026Z,97681.09
2022-12-01T05:05:27.672Z,97688.19
2022-12-01T05:07:54.261Z,97691.56
2022-12-01T05:10:20.928Z,97688.56
2022-12-01T05:12:47.569Z,97688.56
2022-12-01T05:15:14.172Z,97697.81
2022-12-01T05:17:40.692Z,97702.28
2022-12-01T05:20:26.826Z,97694.19
2022-12-01T05:23:05.311Z,97700.38
2022-12-01T05:25:37.262Z,97706.56
2022-12-01T05:28:05.238Z,97718.06
2022-12-01T05:30:31.812Z,97708.28
2022-12-01T05:32:58.330Z,97708.34
2022-12-01T05:35:24.939Z,97701.69
2022-12-01T05:37:51.458Z,97705.22
2022-12-01T05:40:17.995Z,97699.84
2022-12-01T05:42:44.600Z,97699.09
2022-12-01T05:45:11.307Z,97702.84
2022-12-01T05:47:37.748Z,97704.09
2022-12-01T05:50:05.954Z,97701.88
2022-12-01T05:52:35.822Z,97705.59
2022-12-01T05:55:06.766Z,97704.59
2022-12-01T05:57:33.792Z,97705.19
2022-12-01T06:00:00.284Z,97708.69
2022-12-01T06:02:26.930Z,97703.53
2022-12-01T06:04:53.526Z,97703.25
2022-12-01T06:07:21.074Z,97694.72
2022-12-01T06:09:47.840Z,97700.97
2022-12-01T06:12:14.624Z,97708.88
2022-12-01T06:14:43.405Z,97712.72
2022-12-01T06:17:10.505Z,97709.19
2022-12-01T06:19:39.580Z,97712.97
2022-12-01T06:22:06.080Z,97713.81
2022-12-01T06:24:32.545Z,97716.19
2022-12-01T06:26:59.098Z,97719.13
2022-12-01T06:29:25.592Z,97710.53
2022-12-01T06:31:52.230Z,97718.19
2022-12-01T06:34:18.714Z,97722.72
2022-12-01T06:36:45.176Z,97719.13
2022-12-01T06:39:11.624Z,97722.72
2022-12-01T06:41:38.421Z,97715.59
2022-12-01T06:44:05.656Z,97729.59
2022-12-01T06:46:32.246Z,97722.72
2022-12-01T06:48:58.770Z,97730.09
2022-12-01T06:51:25.228Z,97726.03
2022-12-01T06:53:55.161Z,97733.00
2022-12-01T06:56:23.004Z,97736.22
2022-12-01T06:58:50.556Z,97742.31
2022-12-01T07:01:18.296Z,97740.56
2022-12-01T07:03:49.837Z,97739.91
2022-12-01T07:06:17.210Z,97741.56
2022-12-01T07:08:44.770Z,97744.56
2022-12-01T07:11:13.624Z,97749.03
2022-12-01T07:13:41.156Z,97750.75
2022-12-01T07:16:09.485Z,97750.69
2022-12-01T07:18:37.038Z,97753.41
2022-12-01T07:21:05.816Z,97751.44
2022-12-01T07:23:32.618Z,97758.44
2022-12-01T07:26:11.765Z,97757.59
2022-12-01T07:28:38.308Z,97754.88
2022-12-01T07:31:09.282Z,97760.66
2022-12-01T07:33:36.275Z,97761.84
2022-12-01T07:36:04.161Z,97761.75
2022-12-01T07:38:31.883Z,97765.22
2022-12-01T07:41:05.153Z,97773.63
2022-12-01T07:43:32.853Z,97765.34
2022-12-01T07:46:10.985Z,97773.41
2022-12-01T07:48:38.770Z,97770.81
2022-12-01T07:51:06.897Z,97773.28
2022-12-01T07:53:33.439Z,97776.63
2022-12-01T07:56:03.123Z,97782.19
2022-12-01T07:58:36.770Z,97776.50
2022-12-01T08:01:15.152Z,97780.22
2022-12-01T08:03:42.371Z,97780.63
2022-12-01T08:06:10.236Z,97784.41
2022-12-01T08:08:41.013Z,97796.22
2022-12-01T08:11:17.753Z,97786.94
2022-12-01T08:13:44.710Z,97785.34
2022-12-01T08:16:16.397Z,97779.34
2022-12-01T08:18:43.653Z,97785.97
2022-12-01T08:21:15.910Z,97786.91
2022-12-01T08:23:42.731Z,97780.81
2022-12-01T08:26:13.080Z,97788.38
2022-12-01T08:28:40.210Z,97783.13
2022-12-01T08:31:10.934Z,97784.59
2022-12-01T08:33:37.971Z,97785.38
2022-12-01T08:36:05.796Z,97799.19
2022-12-01T08:38:33.094Z,97792.16
2022-12-01T08:41:03.990Z,97792.94
2022-12-01T08:46:17.121Z,97787.78
2022-12-01T08:48:43.743Z,97791.09
2022-12-01T08:51:16.264Z,97791.84
2022-12-01T08:53:48.104Z,97799.75
2022-12-01T08:56:20.614Z,97799.59
2022-12-01T08:58:47.401Z,97795.94
2022-12-01T09:01:16.601Z,97802.06
2022-12-01T09:03:43.639Z,97802.66
2022-12-01T09:06:13.508Z,97799.75
2022-12-01T09:08:40.263Z,97804.53
2022-12-01T09:11:12.494Z,97796.44
2022-12-01T09:13:40.069Z,97799.91
2022-12-01T09:16:17.477Z,97795.00
2022-12-01T09:18:45.913Z,97796.28
2022-12-01T09:21:17.197Z,97794.59
2022-12-01T09:23:44.148Z,97790.41
2022-12-01T09:26:13.848Z,97798.00
2022-12-01T09:28:40.914Z,97793.31
2022-12-01T09:31:10.058Z,97783.88
2022-12-01T09:33:36.925Z,97786.41
2022-12-01T09:36:04.817Z,97790.47
2022-12-01T09:38:33.113Z,97784.59
2022-12-01T09:41:04.692Z,97785.38
2022-12-01T09:43:40.375Z,97790.88
2022-12-01T09:46:16.016Z,97779.75
2022-12-01T09:48:47.410Z,97772.59
2022-12-01T09:51:22.666Z,97776.91
2022-12-01T09:53:52.039Z,97775.50
2022-12-01T09:56:24.981Z,97772.91
2022-12-01T09:59:05.994Z,97768.44
2022-12-01T10:01:42.803Z,97767.88
2022-12-01T10:04:17.899Z,97758.25
2022-12-01T10:07:06.668Z,97764.00
2022-12-01T10:09:36.850Z,97761.16
2022-12-01T10:12:18.567Z,97764.38
2022-12-01T10:14:47.550Z,97758.25
2022-12-01T10:17:33.711Z,97759.72
2022-12-01T10:20:10.582Z,97747.97
2022-12-01T10:22:39.612Z,97758.69
2022-12-01T10:25:17.484Z,97755.31
2022-12-01T10:27:50.018Z,97756.38
2022-12-01T10:30:19.728Z,97760.19
2022-12-01T10:33:32.916Z,97745.81
2022-12-01T10:35:59.456Z,97750.63
2022-12-01T10:38:28.517Z,97744.41
2022-12-01T10:40:58.535Z,97739.75
2022-12-01T10:43:33.471Z,97740.97
2022-12-01T10:46:05.533Z,97731.50
2022-12-01T10:48:32.016Z,97735.41
2022-12-01T10:51:16.285Z,97737.72
2022-12-01T10:53:42.750Z,97736.22
2022-12-01T10:56:21.409Z,97726.69
2022-12-01T10:59:01.891Z,97726.78
2022-12-01T11:01:35.801Z,97723.44
2022-12-01T11:04:21.296Z,97725.59
2022-12-01T11:06:51.465Z,97724.13
2022-12-01T11:09:26.046Z,97720.84
2022-12-01T11:11:58.837Z,97718.69
2022-12-01T11:14:56.633Z,97714.91
2022-12-01T11:17:30.804Z,97717.38
2022-12-01T11:20:17.466Z,97711.50
2022-12-01T11:22:43.958Z,97709.00
2022-12-01T11:25:20.539Z,97720.06
2022-12-01T11:27:54.203Z,97722.59
2022-12-01T11:30:25.103Z,97715.78
2022-12-01T11:33:03.091Z,97710.69
2022-12-01T11:35:40.013Z,97713.06
2022-12-01T11:38:29.429Z,97714.16
2022-12-01T11:40:58.311Z,97710.06
2022-12-01T11:43:24.766Z,97712.56
2022-12-01T11:45:52.847Z,97704.81
2022-12-01T11:48:31.467Z,97713.63
2022-12-01T11:51:07.256Z,97702.28
2022-12-01T11:53:39.401Z,97712.25
2022-12-01T11:56:28.890Z,97710.28
2022-12-01T11:59:01.802Z,97707.91
2022-12-01T12:01:33.691Z,97710.00
2022-12-01T12:04:13.634Z,97703.84
2022-12-01T12:06:52.306Z,97717.81
2022-12-01T12:09:40.298Z,97709.38
2022-12-01T12:12:54.509Z,97714.16
2022-12-01T12:15:39.100Z,97700.47
2022-12-01T12:18:44.022Z,97699.22
2022-12-01T12:21:32.976Z,97699.34
2022-12-01T12:24:29.886Z,97688.66
2022-12-01T12:27:24.490Z,97692.88
2022-12-01T12:30:12.846Z,97689.50
2022-12-01T12:32:57.501Z,97689.94
2022-12-01T12:35:33.144Z,97691.19
2022-12-01T12:38:21.668Z,97689.16
2022-12-01T12:41:06.817Z,97683.34
2022-12-01T12:43:44.167Z,97679.94
2022-12-01T12:46:14.000Z,97681.22
2022-12-01T12:52:16.132Z,97676.44
2022-12-01T12:54:59.314Z,97681.19
2022-12-01T12:57:29.033Z,97679.66
2022-12-01T13:00:13.826Z,97674.25
2022-12-01T13:02:53.105Z,97679.81
2022-12-01T13:05:38.021Z,97676.75
2022-12-01T13:08:30.766Z,97682.94
2022-12-01T13:11:22.114Z,97677.28
2022-12-01T13:13:48.528Z,97669.53
2022-12-01T13:16:25.206Z,97677.84
2022-12-01T13:18:56.326Z,97674.47
2022-12-01T13:21:25.569Z,97673.66
2022-12-01T13:23:52.743Z,97677.84
2022-12-01T13:26:21.339Z,97679.25
2022-12-01T13:28:56.159Z,97678.53
2022-12-01T13:31:23.312Z,97676.44
2022-12-01T13:34:01.898Z,97671.41
2022-12-01T13:36:46.229Z,97674.06
2022-12-01T13:39:26.527Z,97672.53
2022-12-01T13:42:22.536Z,97668.78
2022-12-01T13:44:58.470Z,97681.97
2022-12-01T13:47:24.919Z,97675.75
2022-12-01T13:49:53.086Z,97677.19
2022-12-01T13:52:22.803Z,97676.44
2022-12-01T13:55:07.808Z,97676.31
2022-12-01T13:57:45.317Z,97679.78
2022-12-01T14:00:24.264Z,97681.59
2022-12-01T14:03:12.835Z,97672.81
2022-12-01T14:05:42.359Z,97677.97
2022-12-01T14:08:24.507Z,97678.31
2022-12-01T14:10:58.375Z,97680.63
2022-12-01T14:13:25.788Z,97681.22
2022-12-01T14:15:58.716Z,97678.13
2022-12-01T14:18:37.812Z,97683.09
2022-12-01T14:21:09.403Z,97671.16
2022-12-01T14:23:38.570Z,97677.84
2022-12-01T14:26:20.512Z,97670.94
2022-12-01T14:28:55.924Z,97673.66
2022-12-01T14:31:24.005Z,97681.56
2022-12-01T14:34:10.371Z,97679.16
2022-12-01T14:36:41.594Z,97680.06
2022-12-01T14:39:17.698Z,97682.78
2022-12-01T14:41:51.030Z,97671.69
2022-12-01T14:44:38.523Z,97681.22
2022-12-01T14:47:17.932Z,97682.16
2022-12-01T14:49:51.079Z,97682.84
2022-12-01T14:52:28.969Z,97683.00
2022-12-01T14:54:58.625Z,97681.25
2022-12-01T14:57:32.048Z,97690.28
2022-12-01T15:00:04.950Z,97687.19
2022-12-01T15:02:32.438Z,97686.00
2022-12-01T15:05:15.219Z,97695.09
2022-12-01T15:07:50.908Z,97686.69
2022-12-01T15:10:21.609Z,97690.19
2022-12-01T15:12:49.804Z,97690.91
2022-12-01T15:15:21.039Z,97690.69
2022-12-01T15:17:50.383Z,97687.63
2022-12-01T15:20:33.013Z,97692.06
2022-12-01T15:23:01.767Z,97694.53
2022-12-01T15:25:35.220Z,97694.94
2022-12-01T15:28:19.736Z,97693.91
2022-12-01T15:30:49.960Z,97692.25
2022-12-01T15:33:27.018Z,97690.81
2022-12-01T15:35:55.821Z,97692.72
2022-12-01T15:38:27.269Z,97694.91
2022-12-01T15:43:41.977Z,97692.88
2022-12-01T15:46:13.513Z,97701.72
2022-12-01T15:48:40.181Z,97701.72
2022-12-01T15:51:20.567Z,97695.00
2022-12-01T15:53:51.230Z,97698.25
2022-12-01T15:56:26.184Z,97693.69
2022-12-01T15:58:57.303Z,97687.88
2022-12-01T16:01:31.876Z,97690.19
2022-12-01T16:04:03.771Z,97693.88
2022-12-01T16:06:33.598Z,97694.81
2022-12-01T16:09:03.237Z,97690.81
2022-12-01T16:11:30.670Z,97690.19
2022-12-01T16:14:00.754Z,97693.63
2022-12-01T16:16:47.113Z,97696.56
2022-12-01T16:19:16.355Z,97697.19
2022-12-01T16:21:49.312Z,97690.06
2022-12-01T16:24:22.164Z,97690.06
2022-12-01T16:27:07.633Z,97684.09
2022-12-01T16:29:49.719Z,97683.06
2022-12-01T16:32:21.111Z,97687.41
2022-12-01T16:34:50.229Z,97682.19
2022-12-01T16:37:17.208Z,97680.63
2022-12-01T16:39:46.046Z,97680.44
2022-12-01T16:42:17.566Z,97681.13
2022-12-01T16:44:48.269Z,97684.00
2022-12-01T16:47:21.350Z,97678.81
2022-12-01T16:49:47.947Z,97682.44
2022-12-01T16:55:01.115Z,97682.78
2022-12-01T16:57:27.598Z,97691.25
2022-12-01T16:59:54.153Z,97685.91
2022-12-01T17:02:22.971Z,97688.34
2022-12-01T17:04:49.779Z,97692.00
2022-12-01T17:07:16.454Z,97694.31
2022-12-01T17:09:50.480Z,97700.34
2022-12-01T17:12:19.310Z,97699.34
2022-12-01T17:14:46.034Z,97697.81
2022-12-01T17:17:12.584Z,97693.81
2022-12-01T17:19:39.024Z,97693.19
2022-12-01T17:22:05.519Z,97689.56
2022-12-01T17:24:32.036Z,97686.34
2022-12-01T17:26:58.616Z,97683.53
2022-12-01T17:29:26.301Z,97683.13
2022-12-01T17:31:52.747Z,97680.41
2022-12-01T17:34:19.198Z,97679.81
2022-12-01T17:36:45.770Z,97683.44
2022-12-01T17:39:12.374Z,97684.47
2022-12-01T17:41:38.869Z,97686.38
2022-12-01T17:44:05.629Z,97688.72
2022-12-01T17:46:32.265Z,97688.97
2022-12-01T17:48:59.305Z,97688.91
2022-12-01T17:51:28.216Z,97689.84
2022-12-01T17:53:54.878Z,97693.69
2022-12-01T17:56:23.884Z,97689.06
2022-12-01T17:58:52.776Z,97695.22
2022-12-01T18:01:24.131Z,97686.34
2022-12-01T18:03:53.629Z,97691.94
2022-12-01T18:06:20.668Z,97690.41
2022-12-01T18:08:47.361Z,97688.16
2022-12-01T18:11:16.067Z,97691.25
2022-12-01T18:13:45.246Z,97690.53
2022-12-01T18:16:17.547Z,97693.09
2022-12-01T18:18:47.045Z,97699.91
2022-12-01T18:21:16.783Z,97698.47
2022-12-01T18:23:52.699Z,97693.72
2022-12-01T18:26:21.833Z,97694.34
2022-12-01T18:28:56.977Z,97693.47
2022-12-01T18:31:26.396Z,97697.91
2022-12-01T18:33:53.092Z,97689.75
2022-12-01T18:36:24.326Z,97703.91
2022-12-01T18:38:52.229Z,97700.75
2022-12-01T18:41:19.427Z,97692.91
2022-12-01T18:43:49.446Z,97688.91
2022-12-01T18:46:17.210Z,97696.81
2022-12-01T18:48:49.622Z,97695.13
2022-12-01T18:51:16.231Z,97696.31
2022-12-01T18:53:43.393Z,97694.44
2022-12-01T18:56:12.008Z,97688.41
2022-12-01T18:58:39.550Z,97686.59
2022-12-01T19:01:21.133Z,97689.19
2022-12-01T19:03:50.579Z,97686.47
2022-12-01T19:06:17.975Z,97691.78
2022-12-01T19:08:47.101Z,97686.53
2022-12-01T19:11:13.782Z,97687.06
2022-12-01T19:13:40.248Z,97681.72
2022-12-01T19:16:12.319Z,97679.34
2022-12-01T19:18:39.613Z,97683.91
2022-12-01T19:21:08.585Z,97680.41
2022-12-01T19:23:37.902Z,97677.13
2022-12-01T19:26:06.391Z,97683.25
2022-12-01T19:28:33.878Z,97671.03
2022-12-01T19:31:00.577Z,97672.66
2022-12-01T19:33:28.278Z,97682.88
2022-12-01T19:35:57.834Z,97683.75
2022-12-01T19:38:24.259Z,97687.63
2022-12-01T19:40:52.951Z,97689.38
2022-12-01T19:43:19.398Z,97685.06
2022-12-01T19:45:45.951Z,97687.00
2022-12-01T19:48:12.478Z,97692.19
2022-12-01T19:50:38.933Z,97695.31
2022-12-01T19:53:05.451Z,97693.72
2022-12-01T19:55:32.012Z,97692.03
2022-12-01T19:57:58.584Z,97687.63
2022-12-01T20:00:25.893Z,97690.09
2022-12-01T20:02:52.527Z,97694.50
2022-12-01T20:05:19.314Z,97692.53
2022-12-01T20:07:45.926Z,97695.53
2022-12-01T20:10:12.633Z,97690.22
2022-12-01T20:12:39.161Z,97687.00
2022-12-01T20:15:08.596Z,97682.81
2022-12-01T20:17:36.618Z,97685.19
2022-12-01T20:20:06.358Z,97682.28
2022-12-01T20:22:33.625Z,97684.00
2022-12-01T20:25:00.329Z,97686.81
2022-12-01T20:27:30.038Z,97684.22
2022-12-01T20:29:56.573Z,97687.47
2022-12-01T20:32:26.096Z,97688.41
2022-12-01T20:34:52.852Z,97686.13
2022-12-01T20:37:19.565Z,97675.91
2022-12-01T20:39:46.815Z,97676.72
2022-12-01T20:42:13.317Z,97679.13
2022-12-01T20:44:40.406Z,97676.91
2022-12-01T20:47:06.997Z,97678.78
2022-12-01T20:49:33.509Z,97679.63
2022-12-01T20:51:59.949Z,97682.97
2022-12-01T20:54:28.222Z,97688.09
2022-12-01T20:56:58.104Z,97678.53
2022-12-01T20:59:24.889Z,97680.19
2022-12-01T21:01:51.349Z,97688.28
2022-12-01T21:04:17.933Z,97684.41
2022-12-01T21:06:44.662Z,97685.78
2022-12-01T21:09:12.995Z,97689.84
2022-12-01T21:12:05.897Z,97682.97
2022-12-01T21:14:44.845Z,97685.50
2022-12-01T21:17:37.509Z,97678.47
2022-12-01T21:20:21.755Z,97681.88
2022-12-01T21:22:50.038Z,97676.78
2022-12-01T21:25:23.411Z,97688.03
2022-12-01T21:27:52.683Z,97682.97
2022-12-01T21:30:28.530Z,97689.28
2022-12-01T21:33:00.458Z,97688.44
2022-12-01T21:35:26.899Z,97682.88
2022-12-01T21:38:04.464Z,97684.94
2022-12-01T21:40:30.972Z,97679.00
2022-12-01T21:43:11.177Z,97678.78
2022-12-01T21:45:37.693Z,97680.41
2022-12-01T21:48:16.355Z,97680.59
2022-12-01T21:50:43.236Z,97682.09
2022-12-01T21:53:18.970Z,97680.41
2022-12-01T21:55:46.997Z,97676.97
2022-12-01T21:58:28.986Z,97677.13
2022-12-01T22:00:57.901Z,97676.41
2022-12-01T22:03:39.527Z,97670.22
2022-12-01T22:06:37.226Z,97669.69
2022-12-01T22:09:24.342Z,97673.06
2022-12-01T22:11:56.487Z,97667.53
2022-12-01T22:14:32.083Z,97665.66
2022-12-01T22:17:11.441Z,97661.47
2022-12-01T22:19:42.271Z,97658.13
2022-12-01T22:22:08.679Z,97659.09
2022-12-01T22:24:40.333Z,97658.31
2022-12-01T22:27:26.141Z,97654.97
2022-12-01T22:30:16.279Z,97660.69
2022-12-01T22:32:51.933Z,97667.69
2022-12-01T22:35:21.491Z,97656.25
2022-12-01T22:37:53.942Z,97655.75
2022-12-01T22:40:26.616Z,97651.50
2022-12-01T22:42:53.075Z,97658.56
2022-12-01T22:45:26.996Z,97659.72
2022-12-01T22:48:01.961Z,97654.22
2022-12-01T22:50:30.994Z,97654.72
2022-12-01T22:53:06.233Z,97653.66
2022-12-01T22:55:32.680Z,97654.50
2022-12-01T22:57:59.792Z,97661.81
2022-12-01T23:00:28.515Z,97650.22
2022-12-01T23:02:55.885Z,97651.97
2022-12-01T23:05:30.586Z,97642.31
2022-12-01T23:07:57.549Z,97637.59
2022-12-01T23:10:28.666Z,97641.91
2022-12-01T23:12:59.391Z,97650.91
2022-12-01T23:15:37.374Z,97642.31
2022-12-01T23:18:21.097Z,97645.69
2022-12-01T23:20:53.035Z,97640.88
2022-12-01T23:23:37.757Z,97643.88
2022-12-01T23:26:07.330Z,97636.72
2022-12-01T23:28:36.845Z,97639.25
2022-12-01T23:31:05.754Z,97641.22
2022-12-01T23:33:34.341Z,97634.88
2022-12-01T23:36:24.642Z,97636.72
2022-12-01T23:38:55.270Z,97634.16
2022-12-01T23:41:32.879Z,97628.31
2022-12-01T23:44:03.886Z,97625.00
2022-12-01T23:46:32.818Z,97612.09
2022-12-01T23:49:04.843Z,97621.09
2022-12-01T23:51:35.315Z,97612.09
2022-12-01T23:54:12.620Z,97620.00
2022-12-01T23:56:39.200Z,97612.03
2022-12-01T23:59:12.138Z,97617.94
